Time;durP1;ratioP1;P1;durP2;ratioP2;P2;SDS_P1;SDS_P2;PMS_P1;PMS_P2;Temp;Humidity;BMP_temperature;BMP_pressure;BME280_temperature;BME280_humidity;BME280_pressure;Samples;Min_cycle;Max_cycle;Signal;HPM_P1;HPM_P2
2021/06/26 00:00:57;;;;;;;44.85;37.65;;;16.00;99.90;;;;;;5043416;28;20127;-76
2021/06/26 00:03:26;;;;;;;44.40;38.13;;;16.00;99.90;;;;;;5047307;28;20035;-76
2021/06/26 00:05:55;;;;;;;40.83;34.83;;;16.00;99.90;;;;;;5084034;28;20040;-77
2021/06/26 00:08:23;;;;;;;42.28;36.40;;;16.00;99.90;;;;;;5070134;28;20024;-77
2021/06/26 00:10:49;;;;;;;45.50;38.08;;;16.00;99.90;;;;;;5070714;28;20506;-76
2021/06/26 00:13:16;;;;;;;41.90;37.35;;;16.00;99.90;;;;;;5067626;28;20601;-76
2021/06/26 00:15:43;;;;;;;43.45;36.67;;;16.00;99.90;;;;;;5072285;28;20044;-76
2021/06/26 00:18:09;;;;;;;43.45;36.95;;;15.90;99.90;;;;;;5052143;28;20044;-76
2021/06/26 00:20:35;;;;;;;43.05;36.95;;;15.90;99.90;;;;;;5071917;28;20422;-76
2021/06/26 00:23:01;;;;;;;44.47;37.25;;;15.80;99.90;;;;;;5069396;28;20036;-76
2021/06/26 00:25:27;;;;;;;43.08;36.53;;;15.90;99.90;;;;;;5067505;28;20833;-76
2021/06/26 00:27:56;;;;;;;45.03;36.45;;;15.80;99.90;;;;;;5074665;28;20792;-76
2021/06/26 00:30:23;;;;;;;45.22;38.28;;;15.80;99.90;;;;;;5072283;28;20040;-77
2021/06/26 00:32:48;;;;;;;48.33;40.75;;;15.90;99.90;;;;;;5077596;28;20084;-76
2021/06/26 00:35:15;;;;;;;50.92;41.33;;;15.90;99.90;;;;;;5074502;28;20128;-76
2021/06/26 00:37:42;;;;;;;53.80;41.90;;;15.90;99.90;;;;;;5052738;28;20040;-76
2021/06/26 00:40:10;;;;;;;51.63;41.72;;;15.90;99.90;;;;;;5074230;28;20110;-76
2021/06/26 00:42:42;;;;;;;50.97;43.45;;;15.90;99.90;;;;;;5072274;28;20075;-76
2021/06/26 00:45:10;;;;;;;49.53;40.78;;;15.90;99.90;;;;;;5072894;28;20089;-76
2021/06/26 00:47:37;;;;;;;45.95;38.30;;;15.90;99.90;;;;;;5071815;28;20054;-75
2021/06/26 00:50:12;;;;;;;52.70;43.03;;;15.90;99.90;;;;;;5074763;28;20036;-76
2021/06/26 00:52:38;;;;;;;52.92;41.65;;;15.90;99.90;;;;;;5072055;28;20258;-77
2021/06/26 00:55:05;;;;;;;48.58;40.97;;;15.90;99.90;;;;;;5073001;28;20666;-76
2021/06/26 00:57:33;;;;;;;53.45;42.38;;;15.90;99.90;;;;;;5073812;28;20047;-76
2021/06/26 01:00:07;;;;;;;44.10;37.90;;;15.90;99.90;;;;;;5072534;28;20087;-76
2021/06/26 01:02:33;;;;;;;45.97;38.33;;;16.00;99.90;;;;;;5074749;28;20062;-76
2021/06/26 01:04:59;;;;;;;50.58;39.97;;;16.00;99.90;;;;;;5075934;28;20378;-75
2021/06/26 01:07:24;;;;;;;46.55;39.67;;;16.00;99.90;;;;;;5072063;28;20090;-76
2021/06/26 01:09:50;;;;;;;52.30;42.35;;;16.10;99.90;;;;;;5078185;28;20302;-77
2021/06/26 01:12:16;;;;;;;48.65;39.25;;;16.10;99.90;;;;;;5079261;28;20048;-76
2021/06/26 01:14:42;;;;;;;46.58;38.95;;;16.10;99.90;;;;;;5060871;28;20048;-76
2021/06/26 01:17:09;;;;;;;44.75;37.50;;;16.10;99.90;;;;;;5058222;28;20043;-76
2021/06/26 01:19:36;;;;;;;48.75;38.88;;;16.10;99.90;;;;;;5074320;28;20065;-76
2021/06/26 01:22:06;;;;;;;46.88;38.67;;;16.10;99.90;;;;;;5077876;28;20093;-76
2021/06/26 01:24:37;;;;;;;46.53;38.58;;;16.10;99.90;;;;;;5076273;28;20032;-76
2021/06/26 01:27:04;;;;;;;47.03;38.75;;;16.10;99.90;;;;;;5075273;28;20710;-76
2021/06/26 01:29:30;;;;;;;44.38;37.67;;;16.10;99.90;;;;;;5076146;28;20134;-76
2021/06/26 01:31:57;;;;;;;43.55;38.88;;;16.00;99.90;;;;;;5078641;28;20071;-76
2021/06/26 01:34:25;;;;;;;48.78;40.20;;;16.00;99.90;;;;;;5078815;28;20050;-76
2021/06/26 01:36:51;;;;;;;52.80;42.75;;;16.00;99.90;;;;;;5074398;28;20036;-76
2021/06/26 01:39:17;;;;;;;44.75;37.80;;;16.00;99.90;;;;;;5076784;28;20044;-76
2021/06/26 01:41:43;;;;;;;57.97;44.28;;;16.00;99.90;;;;;;5072304;28;20044;-77
2021/06/26 01:44:09;;;;;;;45.47;36.10;;;16.00;99.90;;;;;;5075615;28;20040;-76
2021/06/26 01:46:38;;;;;;;49.20;41.30;;;16.10;99.90;;;;;;5076344;28;20043;-76
2021/06/26 01:49:14;;;;;;;50.40;40.75;;;16.10;99.90;;;;;;5076346;28;20044;-77
2021/06/26 01:51:45;;;;;;;51.95;42.13;;;16.10;99.90;;;;;;5073282;28;20043;-76
2021/06/26 01:54:13;;;;;;;48.22;40.33;;;16.10;99.90;;;;;;5074559;28;20039;-76
2021/06/26 01:56:40;;;;;;;54.53;42.55;;;16.20;99.90;;;;;;5075831;28;20032;-76
2021/06/26 01:59:06;;;;;;;53.25;42.17;;;16.10;99.90;;;;;;5071211;28;20060;-77
2021/06/26 02:01:33;;;;;;;49.58;41.03;;;16.20;99.90;;;;;;5073794;28;20040;-76
2021/06/26 02:04:00;;;;;;;50.13;41.95;;;16.20;99.90;;;;;;5073619;28;20047;-76
2021/06/26 02:06:29;;;;;;;50.60;41.67;;;16.20;99.90;;;;;;5092286;28;20040;-77
2021/06/26 02:08:55;;;;;;;50.55;40.95;;;16.10;99.90;;;;;;5061926;28;20036;-76
2021/06/26 02:11:21;;;;;;;61.95;44.72;;;16.20;99.90;;;;;;5073193;28;20712;-76
2021/06/26 02:13:47;;;;;;;68.38;48.78;;;16.20;99.90;;;;;;5077003;28;20040;-76
2021/06/26 02:16:13;;;;;;;67.90;49.55;;;16.20;99.90;;;;;;5076889;28;20064;-78
2021/06/26 02:18:39;;;;;;;68.90;47.92;;;16.20;99.90;;;;;;5073322;28;20090;-77
2021/06/26 02:21:08;;;;;;;59.53;46.25;;;16.20;99.90;;;;;;5078037;28;20044;-77
2021/06/26 02:23:34;;;;;;;46.90;40.30;;;16.10;99.90;;;;;;5075500;28;20043;-76
2021/06/26 02:26:00;;;;;;;54.72;44.05;;;16.10;99.90;;;;;;5073217;28;20040;-76
2021/06/26 02:28:27;;;;;;;51.78;43.95;;;16.20;99.90;;;;;;5073536;28;20064;-76
2021/06/26 02:30:55;;;;;;;50.03;42.70;;;16.20;99.90;;;;;;5055149;28;20047;-77
2021/06/26 02:33:21;;;;;;;62.08;47.35;;;16.20;99.90;;;;;;5057390;28;20495;-76
2021/06/26 02:35:47;;;;;;;65.15;47.28;;;16.20;99.90;;;;;;5072972;28;20634;-76
2021/06/26 02:38:13;;;;;;;59.53;46.55;;;16.20;99.90;;;;;;5074771;28;20051;-77
2021/06/26 02:40:39;;;;;;;64.63;47.15;;;16.20;99.90;;;;;;5073734;28;21183;-76
2021/06/26 02:43:05;;;;;;;60.03;46.50;;;16.20;99.90;;;;;;5076576;28;20066;-77
2021/06/26 02:45:30;;;;;;;69.70;49.70;;;16.20;99.90;;;;;;5045016;28;20040;-77
2021/06/26 02:47:56;;;;;;;48.03;39.85;;;16.20;99.90;;;;;;5074755;28;20032;-76
2021/06/26 02:50:22;;;;;;;63.75;46.47;;;16.10;99.90;;;;;;5074690;28;20147;-76
2021/06/26 02:52:50;;;;;;;63.22;47.05;;;16.20;99.90;;;;;;5057368;28;20677;-77
2021/06/26 02:55:16;;;;;;;59.40;46.97;;;16.20;99.90;;;;;;5073803;28;20040;-77
2021/06/26 02:57:42;;;;;;;46.90;39.42;;;16.20;99.90;;;;;;5042499;28;20718;-76
2021/06/26 03:00:09;;;;;;;60.08;45.63;;;16.10;99.90;;;;;;5089617;28;20039;-76
2021/06/26 03:02:35;;;;;;;54.22;42.72;;;16.20;99.90;;;;;;5071133;28;20040;-76
2021/06/26 03:05:01;;;;;;;47.55;39.17;;;16.10;99.90;;;;;;5071092;28;20044;-77
2021/06/26 03:07:33;;;;;;;47.53;40.78;;;16.10;99.90;;;;;;5074216;28;20046;-76
2021/06/26 03:09:59;;;;;;;42.80;37.60;;;16.20;99.90;;;;;;5074462;28;20066;-77
2021/06/26 03:12:25;;;;;;;44.58;34.38;;;16.20;99.90;;;;;;5057843;28;20075;-76
2021/06/26 03:14:51;;;;;;;46.03;37.33;;;16.20;99.90;;;;;;5052522;28;20499;-76
2021/06/26 03:17:17;;;;;;;49.65;41.08;;;16.10;99.90;;;;;;5056802;28;20035;-76
2021/06/26 03:19:43;;;;;;;45.28;37.45;;;16.20;99.90;;;;;;5074208;28;20046;-76
2021/06/26 03:22:09;;;;;;;45.47;37.47;;;16.20;99.90;;;;;;5057555;28;20116;-76
2021/06/26 03:24:35;;;;;;;43.58;35.60;;;16.20;99.90;;;;;;5073623;28;20127;-76
2021/06/26 03:27:01;;;;;;;43.38;36.10;;;16.20;99.90;;;;;;5057905;28;20480;-76
2021/06/26 03:29:27;;;;;;;48.38;38.55;;;16.10;99.90;;;;;;5072221;28;20644;-76
2021/06/26 03:31:53;;;;;;;46.67;38.95;;;16.10;99.90;;;;;;5056042;28;20035;-76
2021/06/26 03:34:19;;;;;;;47.00;39.08;;;16.10;99.90;;;;;;5074148;28;20036;-76
2021/06/26 03:36:45;;;;;;;43.50;34.42;;;16.10;99.90;;;;;;5072781;28;20719;-77
2021/06/26 03:39:11;;;;;;;46.50;37.63;;;16.10;99.90;;;;;;5076611;28;20091;-76
2021/06/26 03:41:40;;;;;;;49.60;40.47;;;16.10;99.90;;;;;;5073814;28;20461;-77
2021/06/26 03:44:06;;;;;;;51.17;42.03;;;16.10;99.90;;;;;;5073914;28;20107;-77
2021/06/26 03:46:33;;;;;;;49.67;41.22;;;16.10;99.90;;;;;;5074340;28;20447;-77
2021/06/26 03:48:59;;;;;;;52.10;40.60;;;16.10;99.90;;;;;;5070832;28;20575;-76
2021/06/26 03:51:25;;;;;;;55.58;42.30;;;16.10;99.90;;;;;;5072424;28;20036;-77
2021/06/26 03:53:54;;;;;;;51.05;42.33;;;16.20;99.90;;;;;;5054621;28;20044;-77
2021/06/26 03:56:20;;;;;;;49.55;41.50;;;16.20;99.90;;;;;;5073170;28;20131;-76
2021/06/26 03:58:46;;;;;;;54.28;43.25;;;16.20;99.90;;;;;;5066959;28;20036;-77
2021/06/26 04:01:12;;;;;;;48.50;39.63;;;16.20;99.90;;;;;;5020213;28;21589;-77
2021/06/26 04:03:38;;;;;;;58.38;44.47;;;16.20;99.90;;;;;;5087807;28;20040;-77
2021/06/26 04:06:04;;;;;;;46.22;39.60;;;16.30;99.90;;;;;;5071822;28;20094;-77
2021/06/26 04:08:30;;;;;;;50.45;42.55;;;16.30;99.90;;;;;;5070321;28;20105;-77
2021/06/26 04:11:16;;;;;;;54.70;44.35;;;16.30;99.90;;;;;;5072267;28;20063;-77
2021/06/26 04:13:43;;;;;;;59.38;44.90;;;16.30;99.90;;;;;;5055599;28;20201;-77
2021/06/26 04:16:09;;;;;;;61.45;45.88;;;16.30;99.90;;;;;;5072489;28;20068;-77
2021/06/26 04:18:35;;;;;;;65.38;47.83;;;16.30;99.90;;;;;;5073896;28;20695;-77
2021/06/26 04:21:01;;;;;;;50.72;40.85;;;16.40;99.90;;;;;;5089110;28;20047;-77
2021/06/26 04:23:26;;;;;;;50.88;39.92;;;16.40;99.90;;;;;;5071164;28;20403;-77
2021/06/26 04:25:53;;;;;;;49.90;38.97;;;16.40;99.90;;;;;;5055261;28;20479;-77
2021/06/26 04:28:19;;;;;;;54.50;43.90;;;16.40;99.90;;;;;;5065915;28;20063;-76
2021/06/26 04:30:45;;;;;;;52.05;39.75;;;16.40;99.90;;;;;;5057255;28;20663;-75
2021/06/26 04:33:12;;;;;;;50.75;40.83;;;16.40;99.90;;;;;;5074543;28;20791;-76
2021/06/26 04:35:38;;;;;;;56.95;44.08;;;16.30;99.90;;;;;;5055127;28;20037;-76
2021/06/26 04:38:04;;;;;;;59.03;45.15;;;16.40;99.90;;;;;;5072325;28;20150;-75
2021/06/26 04:40:30;;;;;;;58.35;44.20;;;16.30;99.90;;;;;;5072166;28;20060;-76
2021/06/26 04:42:56;;;;;;;60.47;45.22;;;16.30;99.90;;;;;;5074650;28;20119;-76
2021/06/26 04:45:22;;;;;;;54.72;44.13;;;16.30;99.90;;;;;;5069463;28;20115;-75
2021/06/26 04:47:48;;;;;;;61.55;46.55;;;16.20;99.90;;;;;;5070383;28;20044;-75
2021/06/26 04:50:15;;;;;;;52.90;42.50;;;16.30;99.90;;;;;;5072811;28;20076;-77
2021/06/26 04:52:43;;;;;;;56.75;43.20;;;16.20;99.90;;;;;;5072788;28;20029;-76
2021/06/26 04:55:10;;;;;;;55.63;43.58;;;16.20;99.90;;;;;;5072482;28;20044;-77
2021/06/26 04:57:36;;;;;;;60.67;46.78;;;16.20;99.90;;;;;;5069812;28;20044;-77
2021/06/26 05:00:05;;;;;;;58.22;45.30;;;16.30;99.90;;;;;;5048527;28;20600;-75
2021/06/26 05:02:31;;;;;;;62.85;46.03;;;16.30;99.90;;;;;;5072629;28;20051;-75
2021/06/26 05:04:59;;;;;;;57.42;42.92;;;16.30;99.90;;;;;;5038837;28;20097;-75
2021/06/26 05:07:25;;;;;;;59.72;46.47;;;16.30;99.90;;;;;;5072086;28;20047;-75
2021/06/26 05:09:51;;;;;;;63.55;47.95;;;16.40;99.90;;;;;;5072329;28;20078;-76
2021/06/26 05:12:18;;;;;;;60.80;48.15;;;16.40;99.90;;;;;;5076027;28;20039;-75
2021/06/26 05:14:43;;;;;;;57.75;45.80;;;16.50;99.90;;;;;;5073388;28;20036;-75
2021/06/26 05:17:09;;;;;;;59.65;46.50;;;16.50;99.90;;;;;;5058277;28;20188;-76
2021/06/26 05:19:35;;;;;;;58.70;44.72;;;16.60;99.90;;;;;;5076622;28;20115;-75
2021/06/26 05:22:01;;;;;;;61.10;47.65;;;16.60;99.90;;;;;;5077176;28;20036;-76
2021/06/26 05:24:28;;;;;;;58.70;47.47;;;16.70;99.90;;;;;;5092998;28;20036;-75
2021/06/26 05:26:53;;;;;;;55.25;43.42;;;16.70;99.90;;;;;;5076490;28;20040;-75
2021/06/26 05:29:19;;;;;;;56.42;44.33;;;16.70;99.90;;;;;;5059209;28;20047;-77
2021/06/26 05:31:45;;;;;;;55.70;43.97;;;16.80;99.90;;;;;;5060257;28;20028;-75
2021/06/26 05:34:11;;;;;;;55.10;44.20;;;16.80;99.90;;;;;;5076119;28;20069;-77
2021/06/26 05:36:37;;;;;;;55.88;44.65;;;16.90;99.90;;;;;;5060266;28;20177;-76
2021/06/26 05:39:04;;;;;;;59.47;44.80;;;16.80;99.90;;;;;;5057853;28;20538;-75
2021/06/26 05:41:30;;;;;;;56.00;46.40;;;16.90;99.90;;;;;;5076471;28;20072;-75
2021/06/26 05:43:56;;;;;;;57.65;45.28;;;16.90;99.90;;;;;;5075195;28;20040;-76
2021/06/26 05:46:22;;;;;;;52.83;42.13;;;16.90;99.90;;;;;;5059135;28;20523;-75
2021/06/26 05:48:48;;;;;;;57.38;43.33;;;16.90;99.90;;;;;;5058092;28;20048;-76
2021/06/26 05:51:18;;;;;;;51.42;42.65;;;17.00;99.90;;;;;;5068391;28;20697;-75
2021/06/26 05:53:44;;;;;;;53.08;42.58;;;17.10;99.90;;;;;;5059259;28;20040;-76
2021/06/26 05:56:11;;;;;;;52.80;41.55;;;17.10;99.90;;;;;;5076224;28;20036;-75
2021/06/26 05:58:37;;;;;;;51.17;42.78;;;17.10;99.90;;;;;;5072196;28;20855;-77
2021/06/26 06:01:10;;;;;;;46.83;39.65;;;17.20;99.90;;;;;;5073068;28;20685;-74
2021/06/26 06:03:37;;;;;;;49.30;40.47;;;17.30;99.90;;;;;;5072169;28;20032;-75
2021/06/26 06:06:03;;;;;;;44.80;38.85;;;17.40;99.90;;;;;;5076260;28;20136;-75
2021/06/26 06:08:29;;;;;;;47.17;39.15;;;17.40;99.90;;;;;;5056592;28;20105;-75
2021/06/26 06:10:55;;;;;;;53.40;40.97;;;17.50;99.90;;;;;;5073517;28;20069;-75
2021/06/26 06:13:21;;;;;;;50.53;39.90;;;17.50;99.90;;;;;;5073339;28;20036;-75
2021/06/26 06:15:49;;;;;;;49.78;41.42;;;17.60;99.90;;;;;;5074077;28;20047;-75
2021/06/26 06:18:16;;;;;;;47.47;39.42;;;17.70;99.90;;;;;;5074056;28;20037;-74
2021/06/26 06:20:43;;;;;;;49.65;39.63;;;17.70;99.80;;;;;;5071328;28;20044;-76
2021/06/26 06:23:09;;;;;;;49.85;39.78;;;17.70;99.70;;;;;;5072581;28;20090;-76
2021/06/26 06:25:35;;;;;;;50.15;41.40;;;17.80;99.70;;;;;;5071827;28;20040;-75
2021/06/26 06:28:05;;;;;;;45.25;37.55;;;17.80;99.70;;;;;;5074311;28;20441;-75
2021/06/26 06:30:32;;;;;;;51.25;42.35;;;17.80;99.60;;;;;;5070751;28;21777;-75
2021/06/26 06:32:59;;;;;;;47.75;41.50;;;17.90;99.50;;;;;;5074385;28;20032;-76
2021/06/26 06:35:26;;;;;;;44.97;37.40;;;17.90;99.30;;;;;;5073163;28;20943;-75
2021/06/26 06:37:52;;;;;;;49.63;40.70;;;18.00;99.20;;;;;;5074109;28;21230;-75
2021/06/26 06:40:18;;;;;;;47.50;40.40;;;18.00;99.10;;;;;;5073224;28;20378;-75
2021/06/26 06:42:44;;;;;;;48.88;39.97;;;18.10;99.00;;;;;;5074062;28;20058;-76
2021/06/26 06:45:11;;;;;;;50.72;42.58;;;18.10;99.00;;;;;;5074093;28;20535;-75
2021/06/26 06:47:38;;;;;;;51.67;43.35;;;18.20;98.60;;;;;;5055891;28;20058;-75
2021/06/26 06:50:06;;;;;;;51.00;43.15;;;18.20;98.60;;;;;;5052773;28;20550;-77
2021/06/26 06:52:31;;;;;;;51.33;42.17;;;18.20;98.20;;;;;;5074031;28;20047;-75
2021/06/26 06:54:57;;;;;;;51.10;41.97;;;18.30;98.20;;;;;;5075330;28;20070;-75
2021/06/26 06:57:25;;;;;;;52.45;41.78;;;18.30;98.00;;;;;;5053581;28;20040;-75
2021/06/26 06:59:52;;;;;;;51.42;43.30;;;18.40;98.10;;;;;;5073371;28;20052;-76
2021/06/26 07:02:19;;;;;;;48.10;41.50;;;18.50;97.90;;;;;;5074322;28;20059;-76
2021/06/26 07:04:45;;;;;;;54.28;44.75;;;18.60;97.80;;;;;;5072628;28;20552;-76
2021/06/26 07:07:11;;;;;;;45.15;40.22;;;18.80;97.70;;;;;;5074743;28;20075;-76
2021/06/26 07:09:37;;;;;;;47.35;40.90;;;18.90;97.50;;;;;;5072393;28;20130;-75
2021/06/26 07:12:03;;;;;;;45.10;38.45;;;19.10;97.20;;;;;;5072367;28;20320;-76
2021/06/26 07:14:29;;;;;;;43.70;37.00;;;19.20;97.00;;;;;;5071877;28;20048;-74
2021/06/26 07:16:55;;;;;;;47.45;38.60;;;19.30;96.60;;;;;;5056026;28;20036;-75
2021/06/26 07:19:21;;;;;;;44.63;37.38;;;19.30;96.40;;;;;;5055274;28;20872;-75
2021/06/26 07:21:47;;;;;;;45.15;37.42;;;19.30;96.20;;;;;;5041573;28;20555;-75
2021/06/26 07:24:13;;;;;;;41.10;36.65;;;19.30;95.90;;;;;;5069523;28;20024;-76
2021/06/26 07:26:39;;;;;;;44.70;35.92;;;19.40;95.80;;;;;;5073599;28;20062;-77
2021/06/26 07:29:06;;;;;;;41.65;36.80;;;19.40;95.60;;;;;;5055163;28;20530;-76
2021/06/26 07:31:32;;;;;;;36.40;32.45;;;19.50;95.40;;;;;;5067863;28;20063;-76
2021/06/26 07:33:58;;;;;;;38.88;32.20;;;19.50;95.20;;;;;;5069257;28;20768;-76
2021/06/26 07:36:24;;;;;;;35.33;30.60;;;19.70;95.00;;;;;;5068670;28;20976;-75
2021/06/26 07:38:50;;;;;;;33.60;30.02;;;19.80;94.60;;;;;;5070973;28;20135;-75
2021/06/26 07:41:16;;;;;;;35.42;31.00;;;19.90;94.30;;;;;;5069321;28;20572;-75
2021/06/26 07:43:42;;;;;;;34.17;30.48;;;20.00;94.20;;;;;;5067144;28;20068;-77
2021/06/26 07:46:08;;;;;;;32.45;28.08;;;20.20;93.90;;;;;;5087168;28;20506;-76
2021/06/26 07:48:34;;;;;;;36.15;29.75;;;20.40;93.50;;;;;;5072182;28;20036;-75
2021/06/26 07:51:00;;;;;;;30.65;27.35;;;20.50;93.10;;;;;;5070286;28;20047;-75
2021/06/26 07:53:26;;;;;;;32.85;29.05;;;20.60;93.10;;;;;;5068830;28;20499;-76
2021/06/26 07:55:53;;;;;;;32.38;28.95;;;20.80;93.00;;;;;;5069806;28;20534;-77
2021/06/26 07:58:20;;;;;;;23.52;20.98;;;21.00;92.70;;;;;;5069431;28;20417;-75
2021/06/26 08:00:48;;;;;;;28.55;25.38;;;21.10;92.00;;;;;;5064187;28;20102;-76
2021/06/26 08:03:18;;;;;;;28.00;24.25;;;21.20;91.80;;;;;;5068987;28;20390;-77
2021/06/26 08:05:44;;;;;;;27.52;24.58;;;21.30;91.60;;;;;;5067478;28;20083;-77
2021/06/26 08:08:11;;;;;;;20.23;18.02;;;21.30;91.30;;;;;;5070086;28;20115;-76
2021/06/26 08:10:37;;;;;;;18.85;16.90;;;21.40;91.30;;;;;;5050596;28;20089;-75
2021/06/26 08:13:04;;;;;;;22.98;19.77;;;21.50;90.90;;;;;;5069115;28;20079;-76
2021/06/26 08:15:30;;;;;;;20.58;18.42;;;21.60;91.00;;;;;;5068137;28;20044;-74
2021/06/26 08:17:57;;;;;;;20.50;18.38;;;21.70;90.80;;;;;;5069012;28;20572;-77
2021/06/26 08:20:24;;;;;;;19.77;17.48;;;21.80;90.10;;;;;;5069341;28;20123;-80
2021/06/26 08:22:50;;;;;;;15.80;14.20;;;21.90;87.90;;;;;;5069002;28;20060;-78
2021/06/26 08:25:16;;;;;;;15.15;13.20;;;21.80;87.20;;;;;;5062771;28;20067;-77
2021/06/26 08:27:42;;;;;;;18.30;16.38;;;21.90;85.90;;;;;;5068983;28;20265;-77
2021/06/26 08:30:08;;;;;;;17.05;13.65;;;21.80;86.80;;;;;;5068647;28;20351;-75
2021/06/26 08:32:36;;;;;;;18.52;16.35;;;21.90;88.70;;;;;;5069989;28;21224;-78
2021/06/26 08:35:02;;;;;;;19.08;16.33;;;22.00;88.70;;;;;;5071869;28;20414;-78
2021/06/26 08:37:28;;;;;;;21.58;19.27;;;22.00;88.40;;;;;;5067383;28;20063;-76
2021/06/26 08:39:54;;;;;;;22.85;20.45;;;22.00;87.20;;;;;;5071132;28;20432;-77
2021/06/26 08:42:20;;;;;;;24.30;21.83;;;22.00;88.30;;;;;;5067955;28;20282;-76
2021/06/26 08:45:00;;;;;;;25.73;21.23;;;22.20;89.10;;;;;;5050817;28;20071;-77
2021/06/26 08:47:27;;;;;;;21.30;18.90;;;22.30;88.60;;;;;;5067715;28;20055;-79
2021/06/26 08:49:54;;;;;;;22.42;20.02;;;22.30;87.90;;;;;;5047719;28;20411;-78
2021/06/26 08:52:20;;;;;;;21.48;19.27;;;22.30;86.20;;;;;;5073408;28;20144;-78
2021/06/26 08:54:54;;;;;;;19.45;17.40;;;22.40;87.50;;;;;;5073114;28;20533;-76
2021/06/26 08:57:37;;;;;;;18.48;16.58;;;22.30;87.80;;;;;;5073916;28;20036;-75
2021/06/26 09:00:14;;;;;;;16.88;15.07;;;22.30;87.60;;;;;;5072716;28;20058;-77
2021/06/26 09:02:40;;;;;;;15.82;13.57;;;22.20;87.60;;;;;;5085110;28;20055;-76
2021/06/26 09:05:07;;;;;;;16.17;13.73;;;22.30;88.20;;;;;;5077147;28;20530;-77
2021/06/26 09:07:38;;;;;;;12.75;11.13;;;22.30;86.60;;;;;;5075098;28;20050;-76
2021/06/26 09:10:17;;;;;;;12.63;11.32;;;22.30;85.80;;;;;;5074440;28;20224;-77
2021/06/26 09:12:44;;;;;;;12.93;11.52;;;22.30;85.10;;;;;;5077632;28;20200;-76
2021/06/26 09:15:28;;;;;;;15.70;14.10;;;22.30;84.80;;;;;;5080644;28;20051;-78
2021/06/26 09:18:20;;;;;;;16.00;14.20;;;22.30;85.90;;;;;;5079936;28;20036;-77
2021/06/26 09:20:53;;;;;;;15.82;13.80;;;22.40;86.20;;;;;;5072731;28;20398;-76
2021/06/26 09:23:30;;;;;;;15.00;12.80;;;22.50;86.50;;;;;;5077382;28;20334;-77
2021/06/26 09:26:08;;;;;;;11.35;9.68;;;22.60;86.00;;;;;;5075024;28;20101;-79
2021/06/26 09:28:35;;;;;;;9.75;7.05;;;22.70;81.60;;;;;;5057281;28;20395;-77
2021/06/26 09:31:01;;;;;;;5.90;4.40;;;22.80;82.60;;;;;;5077090;28;20032;-77
2021/06/26 09:33:31;;;;;;;8.77;7.43;;;22.80;80.40;;;;;;5091020;28;20132;-77
2021/06/26 09:36:02;;;;;;;11.02;9.93;;;22.90;80.40;;;;;;5070416;28;20043;-79
2021/06/26 09:38:31;;;;;;;13.13;10.70;;;23.10;82.20;;;;;;5073281;28;20047;-79
2021/06/26 09:40:58;;;;;;;12.00;10.73;;;23.20;82.40;;;;;;5076357;28;20673;-80
2021/06/26 09:43:29;;;;;;;11.65;10.45;;;23.40;81.00;;;;;;5074905;28;20316;-77
2021/06/26 09:46:05;;;;;;;13.23;11.45;;;23.50;80.60;;;;;;5078997;28;20593;-80
2021/06/26 09:48:30;;;;;;;18.30;16.45;;;23.50;81.50;;;;;;5072232;28;20650;-80
2021/06/26 09:50:56;;;;;;;16.35;14.00;;;23.50;82.10;;;;;;5061339;28;20086;-80
2021/06/26 09:53:22;;;;;;;14.25;12.75;;;23.40;83.10;;;;;;5073445;28;20086;-78
2021/06/26 09:55:54;;;;;;;16.67;14.90;;;23.20;80.10;;;;;;5076854;28;20040;-78
2021/06/26 09:58:20;;;;;;;15.82;14.15;;;23.00;83.30;;;;;;5080188;28;20036;-78
2021/06/26 10:00:47;;;;;;;14.82;13.23;;;23.00;84.30;;;;;;5078281;28;20052;-80
2021/06/26 10:03:18;;;;;;;16.35;13.95;;;22.90;83.90;;;;;;5079359;28;20547;-78
2021/06/26 10:05:46;;;;;;;17.30;15.50;;;22.90;84.20;;;;;;5073548;28;20243;-80
2021/06/26 10:08:14;;;;;;;17.83;15.98;;;23.00;84.80;;;;;;5077377;28;20040;-80
2021/06/26 10:10:40;;;;;;;15.60;14.05;;;23.00;84.90;;;;;;5076167;28;20046;-77
2021/06/26 10:13:06;;;;;;;13.77;12.38;;;23.10;85.30;;;;;;5078560;28;20529;-79
2021/06/26 10:15:33;;;;;;;14.60;12.77;;;23.20;85.00;;;;;;5080188;28;20449;-80
2021/06/26 10:18:00;;;;;;;14.95;13.23;;;23.30;82.30;;;;;;5077011;28;20415;-78
2021/06/26 10:20:28;;;;;;;12.52;11.23;;;23.50;81.90;;;;;;5084198;28;20032;-78
2021/06/26 10:23:01;;;;;;;15.50;7.65;;;23.50;80.80;;;;;;5081576;28;20049;-81
2021/06/26 10:25:32;;;;;;;10.73;9.10;;;23.50;80.30;;;;;;5080676;28;20069;-76
2021/06/26 10:28:07;;;;;;;12.00;10.80;;;23.60;79.00;;;;;;5081252;28;20047;-78
2021/06/26 10:30:34;;;;;;;9.00;6.97;;;23.60;79.00;;;;;;5074831;28;20036;-78
2021/06/26 10:33:05;;;;;;;9.43;8.15;;;23.60;79.10;;;;;;5073842;28;20108;-78
2021/06/26 10:35:33;;;;;;;10.07;7.13;;;23.70;78.20;;;;;;5092398;28;20039;-78
2021/06/26 10:38:06;;;;;;;8.48;6.50;;;23.80;77.70;;;;;;5078582;28;20487;-78
2021/06/26 10:40:43;;;;;;;10.45;8.65;;;23.80;77.80;;;;;;5093287;28;20032;-79
2021/06/26 10:43:27;;;;;;;9.55;7.65;;;24.00;77.80;;;;;;5079612;28;20248;-80
2021/06/26 10:46:11;;;;;;;7.88;6.72;;;24.10;77.70;;;;;;5078225;28;20138;-80
2021/06/26 10:48:42;;;;;;;8.50;6.95;;;24.30;79.50;;;;;;5080466;28;20036;-81
2021/06/26 10:51:10;;;;;;;7.50;6.63;;;24.40;81.20;;;;;;5080072;28;20067;-80
2021/06/26 10:53:41;;;;;;;8.20;7.18;;;24.40;78.70;;;;;;5080735;28;20133;-81
2021/06/26 10:56:16;;;;;;;7.60;6.80;;;24.50;79.70;;;;;;5080843;28;20039;-81
2021/06/26 10:58:44;;;;;;;7.55;6.38;;;24.50;76.80;;;;;;5076787;28;20050;-81
2021/06/26 11:01:23;;;;;;;8.48;7.40;;;24.60;78.50;;;;;;5082567;28;20050;-80
2021/06/26 11:04:06;;;;;;;7.50;6.68;;;24.70;76.60;;;;;;5079566;28;20306;-78
2021/06/26 11:06:31;;;;;;;7.53;6.30;;;24.70;74.60;;;;;;5073074;28;20101;-80
2021/06/26 11:09:09;;;;;;;6.57;5.13;;;24.50;75.00;;;;;;5097706;28;20044;-77
2021/06/26 11:11:41;;;;;;;6.40;4.85;;;24.40;76.30;;;;;;5081752;28;20056;-81
2021/06/26 11:14:25;;;;;;;6.40;4.13;;;24.30;75.60;;;;;;5081342;28;20742;-81
2021/06/26 11:16:58;;;;;;;4.97;4.30;;;24.30;78.40;;;;;;5074047;28;20043;-83
2021/06/26 11:19:34;;;;;;;6.53;4.43;;;24.30;75.00;;;;;;5078897;28;20128;-79
2021/06/26 11:22:02;;;;;;;4.70;3.65;;;24.30;72.30;;;;;;5059923;28;20033;-81
2021/06/26 11:24:38;;;;;;;8.00;5.32;;;24.40;73.80;;;;;;5073042;28;20069;-81
2021/06/26 11:27:06;;;;;;;6.47;5.45;;;24.50;73.50;;;;;;5075409;28;20055;-79
2021/06/26 11:29:36;;;;;;;6.63;3.95;;;24.60;71.00;;;;;;5081737;28;20529;-78
2021/06/26 11:32:05;;;;;;;6.55;4.57;;;24.60;71.80;;;;;;5079083;28;20036;-82
2021/06/26 11:34:31;;;;;;;7.95;5.68;;;24.80;72.70;;;;;;5067704;28;20054;-81
2021/06/26 11:37:03;;;;;;;5.15;4.65;;;24.90;70.00;;;;;;5078447;28;20681;-79
2021/06/26 11:39:31;;;;;;;6.07;4.75;;;25.00;71.70;;;;;;5074303;28;20063;-78
2021/06/26 11:41:57;;;;;;;6.65;4.85;;;25.10;71.20;;;;;;5067940;28;20508;-77
2021/06/26 11:44:37;;;;;;;5.97;5.38;;;25.10;71.20;;;;;;5087542;28;20123;-80
2021/06/26 11:47:08;;;;;;;6.88;4.35;;;25.20;66.50;;;;;;5086979;28;20062;-79
2021/06/26 11:49:41;;;;;;;6.70;6.03;;;25.10;67.80;;;;;;5073022;28;20040;-80
2021/06/26 11:52:09;;;;;;;7.63;6.70;;;25.00;68.10;;;;;;5071249;28;20044;-80
2021/06/26 11:54:35;;;;;;;6.38;4.97;;;24.90;70.50;;;;;;5048570;28;20194;-79
2021/06/26 11:57:02;;;;;;;7.07;6.38;;;25.00;71.10;;;;;;5074504;28;20048;-78
2021/06/26 11:59:37;;;;;;;6.78;5.88;;;25.20;72.20;;;;;;5070533;28;20363;-78
2021/06/26 12:02:04;;;;;;;6.30;5.60;;;25.20;72.30;;;;;;5073416;28;20048;-80
2021/06/26 12:04:31;;;;;;;6.80;6.10;;;25.20;72.90;;;;;;5067556;28;20052;-81
2021/06/26 12:06:57;;;;;;;6.13;5.05;;;25.10;72.80;;;;;;5071330;28;20270;-80
2021/06/26 12:09:25;;;;;;;6.80;5.60;;;24.90;72.40;;;;;;5072251;28;20047;-80
2021/06/26 12:11:53;;;;;;;7.05;5.85;;;24.90;72.50;;;;;;5073560;28;20040;-79
2021/06/26 12:14:27;;;;;;;5.40;4.55;;;25.10;74.10;;;;;;5067882;28;20121;-80
2021/06/26 12:17:08;;;;;;;5.57;5.07;;;25.30;71.40;;;;;;5069580;28;20368;-78
2021/06/26 12:19:34;;;;;;;5.60;4.93;;;25.50;70.80;;;;;;5074373;28;21110;-78
2021/06/26 12:22:01;;;;;;;7.18;5.47;;;25.60;71.40;;;;;;5075137;28;20040;-79
2021/06/26 12:24:31;;;;;;;6.65;5.13;;;25.60;72.40;;;;;;5073406;28;20043;-79
2021/06/26 12:27:08;;;;;;;6.13;5.28;;;25.50;71.00;;;;;;5078517;28;20028;-81
2021/06/26 12:29:34;;;;;;;4.95;4.40;;;25.40;70.80;;;;;;5076251;28;20035;-78
2021/06/26 12:32:04;;;;;;;6.50;5.20;;;25.50;72.00;;;;;;5074923;28;20620;-79
2021/06/26 12:34:30;;;;;;;5.95;5.35;;;25.70;70.20;;;;;;5072381;28;20044;-80